sensor_id;sensor_type;location;lat;lon;timestamp;P1;durP1;ratioP1;P2;durP2;ratioP2
57317;SDS011;43157;50.982;18.132;2023-06-22T00:00:52;19.70;;;12.10;;
57317;SDS011;43157;50.982;18.132;2023-06-22T00:03:19;19.20;;;11.80;;
57317;SDS011;43157;50.982;18.132;2023-06-22T00:05:45;19.60;;;12.40;;
57317;SDS011;43157;50.982;18.132;2023-06-22T00:08:12;20.30;;;12.10;;
57317;SDS011;43157;50.982;18.132;2023-06-22T00:10:38;20.20;;;12.70;;
57317;SDS011;43157;50.982;18.132;2023-06-22T00:13:04;22.90;;;12.90;;
57317;SDS011;43157;50.982;18.132;2023-06-22T00:15:31;19.30;;;12.10;;
57317;SDS011;43157;50.982;18.132;2023-06-22T00:17:56;20.70;;;12.10;;
57317;SDS011;43157;50.982;18.132;2023-06-22T00:20:23;19.30;;;11.80;;
57317;SDS011;43157;50.982;18.132;2023-06-22T00:22:56;21.00;;;13.00;;
57317;SDS011;43157;50.982;18.132;2023-06-22T00:25:22;22.00;;;13.30;;
57317;SDS011;43157;50.982;18.132;2023-06-22T00:27:49;21.60;;;13.80;;
57317;SDS011;43157;50.982;18.132;2023-06-22T00:30:15;21.70;;;12.70;;
57317;SDS011;43157;50.982;18.132;2023-06-22T00:32:41;22.90;;;13.60;;
57317;SDS011;43157;50.982;18.132;2023-06-22T00:35:08;24.80;;;14.80;;
57317;SDS011;43157;50.982;18.132;2023-06-22T00:37:35;23.00;;;15.20;;
57317;SDS011;43157;50.982;18.132;2023-06-22T00:40:02;28.60;;;17.10;;
57317;SDS011;43157;50.982;18.132;2023-06-22T00:42:29;27.20;;;16.30;;
57317;SDS011;43157;50.982;18.132;2023-06-22T00:44:55;25.90;;;15.60;;
57317;SDS011;43157;50.982;18.132;2023-06-22T00:47:21;25.90;;;16.70;;
57317;SDS011;43157;50.982;18.132;2023-06-22T00:49:48;29.10;;;17.20;;
57317;SDS011;43157;50.982;18.132;2023-06-22T00:52:16;25.60;;;15.80;;
57317;SDS011;43157;50.982;18.132;2023-06-22T00:54:49;27.30;;;17.00;;
57317;SDS011;43157;50.982;18.132;2023-06-22T00:57:15;28.90;;;17.10;;
57317;SDS011;43157;50.982;18.132;2023-06-22T00:59:45;25.30;;;16.00;;
57317;SDS011;43157;50.982;18.132;2023-06-22T01:02:13;25.00;;;16.30;;
57317;SDS011;43157;50.982;18.132;2023-06-22T01:04:39;26.00;;;16.60;;
57317;SDS011;43157;50.982;18.132;2023-06-22T01:09:57;28.50;;;18.70;;
57317;SDS011;43157;50.982;18.132;2023-06-22T01:12:25;29.00;;;18.50;;
57317;SDS011;43157;50.982;18.132;2023-06-22T01:14:55;29.90;;;19.10;;
57317;SDS011;43157;50.982;18.132;2023-06-22T01:17:24;29.80;;;17.80;;
57317;SDS011;43157;50.982;18.132;2023-06-22T01:19:50;26.10;;;17.90;;
57317;SDS011;43157;50.982;18.132;2023-06-22T01:22:24;31.30;;;20.50;;
57317;SDS011;43157;50.982;18.132;2023-06-22T01:30:06;31.10;;;20.60;;
57317;SDS011;43157;50.982;18.132;2023-06-22T01:32:36;31.90;;;20.60;;
57317;SDS011;43157;50.982;18.132;2023-06-22T01:35:04;34.00;;;21.40;;
57317;SDS011;43157;50.982;18.132;2023-06-22T01:37:32;27.80;;;20.10;;
57317;SDS011;43157;50.982;18.132;2023-06-22T01:39:59;34.50;;;21.00;;
57317;SDS011;43157;50.982;18.132;2023-06-22T01:42:26;30.70;;;20.10;;
57317;SDS011;43157;50.982;18.132;2023-06-22T01:44:55;30.60;;;21.40;;
57317;SDS011;43157;50.982;18.132;2023-06-22T01:47:21;31.90;;;21.60;;
57317;SDS011;43157;50.982;18.132;2023-06-22T01:49:48;33.00;;;20.80;;
57317;SDS011;43157;50.982;18.132;2023-06-22T01:52:17;30.50;;;21.50;;
57317;SDS011;43157;50.982;18.132;2023-06-22T01:54:43;33.00;;;22.10;;
57317;SDS011;43157;50.982;18.132;2023-06-22T01:57:09;31.50;;;22.00;;
57317;SDS011;43157;50.982;18.132;2023-06-22T01:59:39;33.30;;;21.60;;
57317;SDS011;43157;50.982;18.132;2023-06-22T02:02:09;34.80;;;23.70;;
57317;SDS011;43157;50.982;18.132;2023-06-22T02:04:43;34.30;;;23.00;;
57317;SDS011;43157;50.982;18.132;2023-06-22T02:07:13;32.50;;;22.30;;
57317;SDS011;43157;50.982;18.132;2023-06-22T02:09:42;35.20;;;23.40;;
57317;SDS011;43157;50.982;18.132;2023-06-22T02:12:10;34.70;;;23.70;;
57317;SDS011;43157;50.982;18.132;2023-06-22T02:14:37;35.00;;;22.30;;
57317;SDS011;43157;50.982;18.132;2023-06-22T02:17:03;33.90;;;24.20;;
57317;SDS011;43157;50.982;18.132;2023-06-22T02:19:36;32.60;;;22.20;;
57317;SDS011;43157;50.982;18.132;2023-06-22T02:22:02;34.40;;;24.40;;
57317;SDS011;43157;50.982;18.132;2023-06-22T02:24:29;38.30;;;25.80;;
57317;SDS011;43157;50.982;18.132;2023-06-22T02:26:57;36.10;;;24.10;;
57317;SDS011;43157;50.982;18.132;2023-06-22T02:29:23;36.90;;;25.30;;
57317;SDS011;43157;50.982;18.132;2023-06-22T02:31:48;32.20;;;23.80;;
57317;SDS011;43157;50.982;18.132;2023-06-22T02:34:14;38.80;;;23.20;;
57317;SDS011;43157;50.982;18.132;2023-06-22T02:36:50;35.80;;;24.10;;
57317;SDS011;43157;50.982;18.132;2023-06-22T02:41:49;36.10;;;23.90;;
57317;SDS011;43157;50.982;18.132;2023-06-22T02:44:15;38.00;;;24.10;;
57317;SDS011;43157;50.982;18.132;2023-06-22T02:46:41;37.90;;;25.90;;
57317;SDS011;43157;50.982;18.132;2023-06-22T02:49:07;35.40;;;25.00;;
57317;SDS011;43157;50.982;18.132;2023-06-22T02:51:33;36.40;;;24.60;;
57317;SDS011;43157;50.982;18.132;2023-06-22T02:54:02;36.80;;;24.40;;
57317;SDS011;43157;50.982;18.132;2023-06-22T02:56:28;35.20;;;24.70;;
57317;SDS011;43157;50.982;18.132;2023-06-22T02:58:55;35.00;;;24.10;;
57317;SDS011;43157;50.982;18.132;2023-06-22T03:01:26;38.70;;;25.60;;
57317;SDS011;43157;50.982;18.132;2023-06-22T03:03:53;38.30;;;26.30;;
57317;SDS011;43157;50.982;18.132;2023-06-22T03:06:20;38.00;;;26.30;;
57317;SDS011;43157;50.982;18.132;2023-06-22T03:08:51;40.90;;;24.90;;
57317;SDS011;43157;50.982;18.132;2023-06-22T03:11:17;38.10;;;26.10;;
57317;SDS011;43157;50.982;18.132;2023-06-22T03:13:43;36.30;;;24.00;;
57317;SDS011;43157;50.982;18.132;2023-06-22T03:16:09;36.70;;;26.20;;
57317;SDS011;43157;50.982;18.132;2023-06-22T03:18:34;38.00;;;26.80;;
57317;SDS011;43157;50.982;18.132;2023-06-22T03:21:00;35.50;;;25.90;;
57317;SDS011;43157;50.982;18.132;2023-06-22T03:23:27;38.30;;;27.00;;
57317;SDS011;43157;50.982;18.132;2023-06-22T03:25:53;40.50;;;26.90;;
57317;SDS011;43157;50.982;18.132;2023-06-22T03:28:21;38.60;;;26.50;;
57317;SDS011;43157;50.982;18.132;2023-06-22T03:30:47;38.90;;;26.80;;
57317;SDS011;43157;50.982;18.132;2023-06-22T03:33:12;38.60;;;25.30;;
57317;SDS011;43157;50.982;18.132;2023-06-22T03:35:38;38.60;;;26.30;;
57317;SDS011;43157;50.982;18.132;2023-06-22T03:38:04;37.70;;;26.70;;
57317;SDS011;43157;50.982;18.132;2023-06-22T03:40:29;42.00;;;28.30;;
57317;SDS011;43157;50.982;18.132;2023-06-22T03:42:55;37.80;;;26.40;;
57317;SDS011;43157;50.982;18.132;2023-06-22T03:45:21;39.50;;;26.10;;
57317;SDS011;43157;50.982;18.132;2023-06-22T03:47:46;40.10;;;25.50;;
57317;SDS011;43157;50.982;18.132;2023-06-22T03:50:12;40.50;;;27.60;;
57317;SDS011;43157;50.982;18.132;2023-06-22T03:52:38;39.70;;;27.30;;
57317;SDS011;43157;50.982;18.132;2023-06-22T03:55:05;36.30;;;26.20;;
57317;SDS011;43157;50.982;18.132;2023-06-22T03:57:32;36.20;;;24.80;;
57317;SDS011;43157;50.982;18.132;2023-06-22T03:59:57;35.70;;;25.00;;
57317;SDS011;43157;50.982;18.132;2023-06-22T04:14:11;38.20;;;27.50;;
57317;SDS011;43157;50.982;18.132;2023-06-22T04:16:37;37.30;;;26.60;;
57317;SDS011;43157;50.982;18.132;2023-06-22T04:19:02;37.90;;;27.10;;
57317;SDS011;43157;50.982;18.132;2023-06-22T04:21:28;38.40;;;28.30;;
57317;SDS011;43157;50.982;18.132;2023-06-22T04:23:54;40.20;;;28.40;;
57317;SDS011;43157;50.982;18.132;2023-06-22T04:26:20;41.20;;;30.10;;
57317;SDS011;43157;50.982;18.132;2023-06-22T04:28:46;42.80;;;31.40;;
57317;SDS011;43157;50.982;18.132;2023-06-22T04:31:17;41.60;;;28.70;;
57317;SDS011;43157;50.982;18.132;2023-06-22T04:33:44;37.10;;;28.30;;
57317;SDS011;43157;50.982;18.132;2023-06-22T04:36:10;38.40;;;29.00;;
57317;SDS011;43157;50.982;18.132;2023-06-22T04:38:38;34.50;;;27.00;;
57317;SDS011;43157;50.982;18.132;2023-06-22T04:41:04;38.90;;;27.10;;
57317;SDS011;43157;50.982;18.132;2023-06-22T04:43:31;37.90;;;28.10;;
57317;SDS011;43157;50.982;18.132;2023-06-22T04:45:58;37.80;;;28.60;;
57317;SDS011;43157;50.982;18.132;2023-06-22T04:48:29;41.90;;;30.90;;
57317;SDS011;43157;50.982;18.132;2023-06-22T04:51:01;41.00;;;29.30;;
57317;SDS011;43157;50.982;18.132;2023-06-22T04:53:30;40.60;;;27.00;;
57317;SDS011;43157;50.982;18.132;2023-06-22T04:55:56;36.20;;;26.60;;
57317;SDS011;43157;50.982;18.132;2023-06-22T04:58:21;34.60;;;25.80;;
57317;SDS011;43157;50.982;18.132;2023-06-22T05:00:47;34.70;;;23.70;;
57317;SDS011;43157;50.982;18.132;2023-06-22T05:03:13;33.10;;;23.20;;
57317;SDS011;43157;50.982;18.132;2023-06-22T05:05:38;32.70;;;23.30;;
57317;SDS011;43157;50.982;18.132;2023-06-22T05:08:04;28.80;;;20.20;;
57317;SDS011;43157;50.982;18.132;2023-06-22T05:10:32;31.50;;;21.90;;
57317;SDS011;43157;50.982;18.132;2023-06-22T05:12:58;29.10;;;22.90;;
57317;SDS011;43157;50.982;18.132;2023-06-22T05:15:24;31.00;;;21.50;;
57317;SDS011;43157;50.982;18.132;2023-06-22T05:17:53;31.40;;;21.40;;
57317;SDS011;43157;50.982;18.132;2023-06-22T05:20:19;26.80;;;19.00;;
57317;SDS011;43157;50.982;18.132;2023-06-22T05:22:47;25.70;;;16.40;;
57317;SDS011;43157;50.982;18.132;2023-06-22T05:25:12;22.80;;;16.20;;
57317;SDS011;43157;50.982;18.132;2023-06-22T05:27:38;26.40;;;16.40;;
57317;SDS011;43157;50.982;18.132;2023-06-22T05:30:08;21.60;;;14.50;;
57317;SDS011;43157;50.982;18.132;2023-06-22T05:32:34;22.60;;;14.50;;
57317;SDS011;43157;50.982;18.132;2023-06-22T05:35:01;20.10;;;12.50;;
57317;SDS011;43157;50.982;18.132;2023-06-22T05:37:28;22.10;;;11.90;;
57317;SDS011;43157;50.982;18.132;2023-06-22T05:39:54;18.00;;;11.40;;
57317;SDS011;43157;50.982;18.132;2023-06-22T05:42:20;18.60;;;11.60;;
57317;SDS011;43157;50.982;18.132;2023-06-22T05:44:47;18.00;;;11.40;;
57317;SDS011;43157;50.982;18.132;2023-06-22T05:47:12;20.00;;;12.30;;
57317;SDS011;43157;50.982;18.132;2023-06-22T05:49:38;19.20;;;11.30;;
57317;SDS011;43157;50.982;18.132;2023-06-22T05:52:07;17.90;;;11.00;;
57317;SDS011;43157;50.982;18.132;2023-06-22T05:54:32;19.80;;;13.30;;
57317;SDS011;43157;50.982;18.132;2023-06-22T05:56:58;19.50;;;12.30;;
57317;SDS011;43157;50.982;18.132;2023-06-22T05:59:24;19.50;;;12.20;;
57317;SDS011;43157;50.982;18.132;2023-06-22T06:01:50;17.70;;;11.40;;
57317;SDS011;43157;50.982;18.132;2023-06-22T06:04:18;19.20;;;11.90;;
57317;SDS011;43157;50.982;18.132;2023-06-22T06:06:45;15.60;;;9.60;;
57317;SDS011;43157;50.982;18.132;2023-06-22T06:09:12;16.90;;;9.80;;
57317;SDS011;43157;50.982;18.132;2023-06-22T06:11:39;15.30;;;10.10;;
57317;SDS011;43157;50.982;18.132;2023-06-22T06:14:05;16.60;;;9.70;;
57317;SDS011;43157;50.982;18.132;2023-06-22T06:16:31;18.00;;;10.20;;
57317;SDS011;43157;50.982;18.132;2023-06-22T06:18:57;17.40;;;10.50;;
57317;SDS011;43157;50.982;18.132;2023-06-22T06:21:24;17.30;;;9.70;;
57317;SDS011;43157;50.982;18.132;2023-06-22T06:23:49;17.60;;;9.80;;
57317;SDS011;43157;50.982;18.132;2023-06-22T06:26:15;18.00;;;9.30;;
57317;SDS011;43157;50.982;18.132;2023-06-22T06:28:42;14.80;;;8.70;;
57317;SDS011;43157;50.982;18.132;2023-06-22T06:31:08;15.40;;;8.40;;
57317;SDS011;43157;50.982;18.132;2023-06-22T06:33:35;14.10;;;8.80;;
57317;SDS011;43157;50.982;18.132;2023-06-22T06:36:01;13.60;;;7.80;;
57317;SDS011;43157;50.982;18.132;2023-06-22T06:38:31;15.70;;;8.30;;
57317;SDS011;43157;50.982;18.132;2023-06-22T06:40:57;14.00;;;8.40;;
57317;SDS011;43157;50.982;18.132;2023-06-22T06:43:23;16.40;;;9.50;;
57317;SDS011;43157;50.982;18.132;2023-06-22T06:45:50;14.10;;;8.40;;
57317;SDS011;43157;50.982;18.132;2023-06-22T06:48:16;15.50;;;9.30;;
57317;SDS011;43157;50.982;18.132;2023-06-22T06:50:42;17.90;;;9.40;;
57317;SDS011;43157;50.982;18.132;2023-06-22T06:53:09;13.00;;;7.50;;
57317;SDS011;43157;50.982;18.132;2023-06-22T06:55:35;15.50;;;8.30;;
57317;SDS011;43157;50.982;18.132;2023-06-22T06:58:01;15.60;;;8.60;;
57317;SDS011;43157;50.982;18.132;2023-06-22T07:00:28;15.50;;;8.90;;
57317;SDS011;43157;50.982;18.132;2023-06-22T07:02:53;15.10;;;9.00;;
57317;SDS011;43157;50.982;18.132;2023-06-22T07:05:19;15.60;;;8.80;;
57317;SDS011;43157;50.982;18.132;2023-06-22T07:07:45;14.50;;;9.30;;
57317;SDS011;43157;50.982;18.132;2023-06-22T07:10:10;15.30;;;9.60;;
57317;SDS011;43157;50.982;18.132;2023-06-22T07:12:36;14.70;;;8.50;;
57317;SDS011;43157;50.982;18.132;2023-06-22T07:15:05;16.40;;;9.50;;
57317;SDS011;43157;50.982;18.132;2023-06-22T07:17:35;15.20;;;8.60;;
57317;SDS011;43157;50.982;18.132;2023-06-22T07:20:03;15.60;;;8.80;;
57317;SDS011;43157;50.982;18.132;2023-06-22T07:22:41;16.50;;;9.00;;
57317;SDS011;43157;50.982;18.132;2023-06-22T07:27:36;15.70;;;9.60;;
57317;SDS011;43157;50.982;18.132;2023-06-22T07:30:03;14.30;;;9.40;;
57317;SDS011;43157;50.982;18.132;2023-06-22T07:32:29;14.00;;;9.10;;
57317;SDS011;43157;50.982;18.132;2023-06-22T07:34:55;15.90;;;8.60;;
57317;SDS011;43157;50.982;18.132;2023-06-22T07:37:21;15.10;;;9.30;;
57317;SDS011;43157;50.982;18.132;2023-06-22T07:39:46;13.80;;;9.30;;
57317;SDS011;43157;50.982;18.132;2023-06-22T07:42:12;16.90;;;8.90;;
57317;SDS011;43157;50.982;18.132;2023-06-22T07:44:37;16.30;;;9.60;;
57317;SDS011;43157;50.982;18.132;2023-06-22T07:47:03;15.50;;;9.20;;
57317;SDS011;43157;50.982;18.132;2023-06-22T07:49:29;14.60;;;8.70;;
57317;SDS011;43157;50.982;18.132;2023-06-22T07:51:55;13.80;;;8.50;;
57317;SDS011;43157;50.982;18.132;2023-06-22T07:54:20;17.30;;;10.10;;
57317;SDS011;43157;50.982;18.132;2023-06-22T07:56:46;16.10;;;9.30;;
57317;SDS011;43157;50.982;18.132;2023-06-22T07:59:11;13.00;;;8.60;;
57317;SDS011;43157;50.982;18.132;2023-06-22T08:01:37;13.10;;;7.90;;
57317;SDS011;43157;50.982;18.132;2023-06-22T08:04:02;12.60;;;8.30;;
57317;SDS011;43157;50.982;18.132;2023-06-22T08:06:29;11.90;;;7.50;;
57317;SDS011;43157;50.982;18.132;2023-06-22T08:08:56;16.00;;;8.70;;
57317;SDS011;43157;50.982;18.132;2023-06-22T08:11:22;14.00;;;8.20;;
57317;SDS011;43157;50.982;18.132;2023-06-22T08:13:49;13.70;;;7.80;;
57317;SDS011;43157;50.982;18.132;2023-06-22T08:16:15;13.80;;;9.00;;
57317;SDS011;43157;50.982;18.132;2023-06-22T08:18:41;12.90;;;8.70;;
57317;SDS011;43157;50.982;18.132;2023-06-22T08:21:07;13.90;;;8.90;;
57317;SDS011;43157;50.982;18.132;2023-06-22T08:23:32;13.10;;;8.20;;
57317;SDS011;43157;50.982;18.132;2023-06-22T08:25:58;16.20;;;8.90;;
57317;SDS011;43157;50.982;18.132;2023-06-22T08:28:24;13.50;;;8.40;;
57317;SDS011;43157;50.982;18.132;2023-06-22T08:30:49;14.80;;;8.20;;
57317;SDS011;43157;50.982;18.132;2023-06-22T08:33:15;13.20;;;8.50;;
57317;SDS011;43157;50.982;18.132;2023-06-22T08:35:41;13.00;;;8.30;;
57317;SDS011;43157;50.982;18.132;2023-06-22T08:38:07;11.80;;;7.60;;
57317;SDS011;43157;50.982;18.132;2023-06-22T08:40:34;12.60;;;8.50;;
57317;SDS011;43157;50.982;18.132;2023-06-22T08:42:59;14.10;;;8.70;;
57317;SDS011;43157;50.982;18.132;2023-06-22T08:45:25;14.00;;;8.80;;
57317;SDS011;43157;50.982;18.132;2023-06-22T08:47:50;13.70;;;8.60;;
57317;SDS011;43157;50.982;18.132;2023-06-22T08:50:18;12.80;;;8.30;;
57317;SDS011;43157;50.982;18.132;2023-06-22T08:52:43;13.20;;;8.40;;
57317;SDS011;43157;50.982;18.132;2023-06-22T08:55:10;14.10;;;7.90;;
57317;SDS011;43157;50.982;18.132;2023-06-22T08:57:36;12.60;;;7.60;;
57317;SDS011;43157;50.982;18.132;2023-06-22T09:00:08;12.60;;;7.80;;
57317;SDS011;43157;50.982;18.132;2023-06-22T09:02:51;15.40;;;8.70;;
57317;SDS011;43157;50.982;18.132;2023-06-22T09:05:17;13.40;;;8.00;;
57317;SDS011;43157;50.982;18.132;2023-06-22T09:07:43;15.20;;;9.00;;
57317;SDS011;43157;50.982;18.132;2023-06-22T09:10:09;13.20;;;7.70;;
57317;SDS011;43157;50.982;18.132;2023-06-22T09:12:35;15.30;;;7.90;;
57317;SDS011;43157;50.982;18.132;2023-06-22T09:15:03;11.60;;;7.20;;
57317;SDS011;43157;50.982;18.132;2023-06-22T09:17:29;12.30;;;7.50;;
57317;SDS011;43157;50.982;18.132;2023-06-22T09:19:55;11.60;;;7.70;;
57317;SDS011;43157;50.982;18.132;2023-06-22T09:22:20;16.70;;;7.70;;
57317;SDS011;43157;50.982;18.132;2023-06-22T09:24:46;13.40;;;7.10;;
57317;SDS011;43157;50.982;18.132;2023-06-22T09:27:12;15.60;;;7.50;;
57317;SDS011;43157;50.982;18.132;2023-06-22T09:29:38;13.00;;;7.50;;
57317;SDS011;43157;50.982;18.132;2023-06-22T09:32:03;13.50;;;7.30;;
57317;SDS011;43157;50.982;18.132;2023-06-22T09:34:29;13.80;;;8.30;;
57317;SDS011;43157;50.982;18.132;2023-06-22T09:36:56;13.50;;;7.60;;
57317;SDS011;43157;50.982;18.132;2023-06-22T09:39:22;12.90;;;7.50;;
57317;SDS011;43157;50.982;18.132;2023-06-22T09:41:48;14.60;;;7.40;;
57317;SDS011;43157;50.982;18.132;2023-06-22T09:44:14;13.80;;;7.50;;
57317;SDS011;43157;50.982;18.132;2023-06-22T09:46:40;12.80;;;8.10;;
57317;SDS011;43157;50.982;18.132;2023-06-22T09:49:05;14.50;;;6.60;;
57317;SDS011;43157;50.982;18.132;2023-06-22T09:51:31;13.70;;;6.80;;
57317;SDS011;43157;50.982;18.132;2023-06-22T09:53:57;11.60;;;5.70;;
57317;SDS011;43157;50.982;18.132;2023-06-22T09:56:23;12.30;;;6.30;;
57317;SDS011;43157;50.982;18.132;2023-06-22T09:58:49;13.70;;;6.90;;
57317;SDS011;43157;50.982;18.132;2023-06-22T10:01:17;11.40;;;6.50;;
57317;SDS011;43157;50.982;18.132;2023-06-22T10:03:43;11.10;;;6.90;;
57317;SDS011;43157;50.982;18.132;2023-06-22T10:06:09;11.50;;;7.00;;
57317;SDS011;43157;50.982;18.132;2023-06-22T10:08:35;13.40;;;7.20;;
57317;SDS011;43157;50.982;18.132;2023-06-22T10:11:02;13.60;;;7.40;;
57317;SDS011;43157;50.982;18.132;2023-06-22T10:13:28;12.10;;;6.50;;
57317;SDS011;43157;50.982;18.132;2023-06-22T10:15:54;12.90;;;6.10;;
57317;SDS011;43157;50.982;18.132;2023-06-22T10:18:20;10.80;;;5.50;;
57317;SDS011;43157;50.982;18.132;2023-06-22T10:20:49;11.70;;;7.00;;
57317;SDS011;43157;50.982;18.132;2023-06-22T10:23:19;11.60;;;5.90;;
57317;SDS011;43157;50.982;18.132;2023-06-22T10:25:45;13.20;;;5.70;;
57317;SDS011;43157;50.982;18.132;2023-06-22T10:28:11;11.00;;;5.00;;
57317;SDS011;43157;50.982;18.132;2023-06-22T10:30:40;10.10;;;5.50;;
57317;SDS011;43157;50.982;18.132;2023-06-22T10:33:07;10.70;;;5.40;;
57317;SDS011;43157;50.982;18.132;2023-06-22T10:35:33;12.90;;;5.20;;
57317;SDS011;43157;50.982;18.132;2023-06-22T10:37:59;12.10;;;5.50;;
57317;SDS011;43157;50.982;18.132;2023-06-22T10:40:25;9.70;;;4.80;;
57317;SDS011;43157;50.982;18.132;2023-06-22T10:42:51;9.50;;;5.00;;
57317;SDS011;43157;50.982;18.132;2023-06-22T10:45:16;11.10;;;5.90;;
57317;SDS011;43157;50.982;18.132;2023-06-22T10:47:42;10.10;;;4.80;;
57317;SDS011;43157;50.982;18.132;2023-06-22T10:50:08;8.20;;;4.50;;
57317;SDS011;43157;50.982;18.132;2023-06-22T10:52:34;10.30;;;4.90;;
57317;SDS011;43157;50.982;18.132;2023-06-22T10:54:59;10.50;;;4.70;;
57317;SDS011;43157;50.982;18.132;2023-06-22T10:57:25;9.40;;;4.70;;
57317;SDS011;43157;50.982;18.132;2023-06-22T10:59:51;10.60;;;4.90;;
57317;SDS011;43157;50.982;18.132;2023-06-22T11:02:16;10.50;;;4.50;;
57317;SDS011;43157;50.982;18.132;2023-06-22T11:04:42;10.10;;;4.50;;
57317;SDS011;43157;50.982;18.132;2023-06-22T11:07:08;11.70;;;4.80;;
57317;SDS011;43157;50.982;18.132;2023-06-22T11:09:34;8.90;;;5.00;;
57317;SDS011;43157;50.982;18.132;2023-06-22T11:12:00;9.80;;;4.50;;
57317;SDS011;43157;50.982;18.132;2023-06-22T11:14:26;8.20;;;4.00;;
57317;SDS011;43157;50.982;18.132;2023-06-22T11:16:51;9.00;;;4.40;;
57317;SDS011;43157;50.982;18.132;2023-06-22T11:19:17;9.00;;;4.30;;
57317;SDS011;43157;50.982;18.132;2023-06-22T11:21:43;8.00;;;4.50;;
57317;SDS011;43157;50.982;18.132;2023-06-22T11:24:09;9.30;;;4.90;;
57317;SDS011;43157;50.982;18.132;2023-06-22T11:26:35;9.70;;;4.80;;
57317;SDS011;43157;50.982;18.132;2023-06-22T11:29:02;11.10;;;4.90;;
57317;SDS011;43157;50.982;18.132;2023-06-22T11:31:31;9.40;;;4.20;;
57317;SDS011;43157;50.982;18.132;2023-06-22T11:33:57;9.70;;;4.80;;
57317;SDS011;43157;50.982;18.132;2023-06-22T11:36:23;17.20;;;4.90;;
57317;SDS011;43157;50.982;18.132;2023-06-22T11:38:48;9.60;;;5.10;;
57317;SDS011;43157;50.982;18.132;2023-06-22T11:41:14;14.90;;;5.10;;
57317;SDS011;43157;50.982;18.132;2023-06-22T11:43:40;9.00;;;4.60;;
57317;SDS011;43157;50.982;18.132;2023-06-22T11:46:05;11.10;;;4.50;;
57317;SDS011;43157;50.982;18.132;2023-06-22T11:48:31;10.30;;;4.70;;
57317;SDS011;43157;50.982;18.132;2023-06-22T11:50:57;8.60;;;4.20;;
57317;SDS011;43157;50.982;18.132;2023-06-22T11:53:24;12.00;;;4.80;;
57317;SDS011;43157;50.982;18.132;2023-06-22T11:55:51;9.00;;;4.40;;
57317;SDS011;43157;50.982;18.132;2023-06-22T11:58:18;12.00;;;3.90;;
57317;SDS011;43157;50.982;18.132;2023-06-22T12:00:43;9.90;;;4.50;;
57317;SDS011;43157;50.982;18.132;2023-06-22T12:03:10;8.50;;;4.00;;
57317;SDS011;43157;50.982;18.132;2023-06-22T12:05:37;8.70;;;4.50;;
57317;SDS011;43157;50.982;18.132;2023-06-22T12:08:04;8.80;;;4.30;;
57317;SDS011;43157;50.982;18.132;2023-06-22T12:10:29;8.40;;;3.70;;
57317;SDS011;43157;50.982;18.132;2023-06-22T12:12:55;9.70;;;3.80;;
57317;SDS011;43157;50.982;18.132;2023-06-22T12:15:22;8.80;;;4.30;;
57317;SDS011;43157;50.982;18.132;2023-06-22T12:17:48;10.60;;;5.10;;
57317;SDS011;43157;50.982;18.132;2023-06-22T12:20:14;10.00;;;4.60;;
57317;SDS011;43157;50.982;18.132;2023-06-22T12:22:41;9.00;;;4.30;;
57317;SDS011;43157;50.982;18.132;2023-06-22T12:25:07;9.00;;;4.00;;
57317;SDS011;43157;50.982;18.132;2023-06-22T12:27:34;8.60;;;4.10;;
57317;SDS011;43157;50.982;18.132;2023-06-22T12:30:00;9.30;;;4.40;;
57317;SDS011;43157;50.982;18.132;2023-06-22T12:32:26;7.60;;;3.90;;
57317;SDS011;43157;50.982;18.132;2023-06-22T12:34:51;9.10;;;3.80;;
57317;SDS011;43157;50.982;18.132;2023-06-22T12:37:17;8.60;;;3.60;;
57317;SDS011;43157;50.982;18.132;2023-06-22T12:39:43;9.80;;;4.40;;
57317;SDS011;43157;50.982;18.132;2023-06-22T12:42:08;6.20;;;3.30;;
57317;SDS011;43157;50.982;18.132;2023-06-22T12:44:35;8.40;;;3.60;;
57317;SDS011;43157;50.982;18.132;2023-06-22T12:47:02;8.70;;;3.50;;
57317;SDS011;43157;50.982;18.132;2023-06-22T12:49:28;7.10;;;3.40;;
57317;SDS011;43157;50.982;18.132;2023-06-22T12:51:53;6.70;;;3.20;;
57317;SDS011;43157;50.982;18.132;2023-06-22T12:54:19;9.10;;;3.40;;
57317;SDS011;43157;50.982;18.132;2023-06-22T12:56:44;8.50;;;3.60;;
57317;SDS011;43157;50.982;18.132;2023-06-22T12:59:10;7.50;;;3.80;;
57317;SDS011;43157;50.982;18.132;2023-06-22T13:01:36;7.20;;;3.60;;
57317;SDS011;43157;50.982;18.132;2023-06-22T13:04:02;7.00;;;3.30;;
57317;SDS011;43157;50.982;18.132;2023-06-22T13:06:28;8.40;;;3.70;;
57317;SDS011;43157;50.982;18.132;2023-06-22T13:08:54;8.40;;;4.00;;
57317;SDS011;43157;50.982;18.132;2023-06-22T13:11:19;9.50;;;3.90;;
57317;SDS011;43157;50.982;18.132;2023-06-22T13:13:45;9.10;;;3.90;;
57317;SDS011;43157;50.982;18.132;2023-06-22T13:16:11;10.50;;;4.10;;
57317;SDS011;43157;50.982;18.132;2023-06-22T13:18:37;8.30;;;3.70;;
57317;SDS011;43157;50.982;18.132;2023-06-22T13:21:03;10.10;;;3.40;;
57317;SDS011;43157;50.982;18.132;2023-06-22T13:23:29;11.30;;;3.80;;
57317;SDS011;43157;50.982;18.132;2023-06-22T13:25:55;7.60;;;3.80;;
57317;SDS011;43157;50.982;18.132;2023-06-22T13:28:21;8.80;;;4.00;;
57317;SDS011;43157;50.982;18.132;2023-06-22T13:30:47;10.40;;;4.30;;
57317;SDS011;43157;50.982;18.132;2023-06-22T13:33:14;9.70;;;4.20;;
57317;SDS011;43157;50.982;18.132;2023-06-22T13:35:40;9.10;;;3.80;;
57317;SDS011;43157;50.982;18.132;2023-06-22T13:38:08;9.00;;;3.80;;
57317;SDS011;43157;50.982;18.132;2023-06-22T13:40:34;7.30;;;3.30;;
57317;SDS011;43157;50.982;18.132;2023-06-22T13:43:01;8.50;;;3.70;;
57317;SDS011;43157;50.982;18.132;2023-06-22T13:45:26;8.30;;;3.20;;
57317;SDS011;43157;50.982;18.132;2023-06-22T13:47:52;9.20;;;3.50;;
57317;SDS011;43157;50.982;18.132;2023-06-22T13:50:18;6.90;;;3.50;;
57317;SDS011;43157;50.982;18.132;2023-06-22T13:52:43;8.00;;;3.80;;
57317;SDS011;43157;50.982;18.132;2023-06-22T13:55:09;8.30;;;3.70;;
57317;SDS011;43157;50.982;18.132;2023-06-22T13:57:35;7.00;;;3.60;;
57317;SDS011;43157;50.982;18.132;2023-06-22T14:00:02;8.80;;;3.80;;
57317;SDS011;43157;50.982;18.132;2023-06-22T14:02:30;9.50;;;3.80;;
57317;SDS011;43157;50.982;18.132;2023-06-22T14:04:56;8.90;;;3.70;;
57317;SDS011;43157;50.982;18.132;2023-06-22T14:07:21;7.70;;;3.90;;
57317;SDS011;43157;50.982;18.132;2023-06-22T14:09:47;9.30;;;3.80;;
57317;SDS011;43157;50.982;18.132;2023-06-22T14:12:13;8.70;;;4.10;;
57317;SDS011;43157;50.982;18.132;2023-06-22T14:14:39;8.60;;;4.10;;
57317;SDS011;43157;50.982;18.132;2023-06-22T14:17:04;8.60;;;4.20;;
57317;SDS011;43157;50.982;18.132;2023-06-22T14:19:30;8.60;;;4.10;;
57317;SDS011;43157;50.982;18.132;2023-06-22T14:21:56;9.30;;;4.30;;
57317;SDS011;43157;50.982;18.132;2023-06-22T14:24:22;7.50;;;3.70;;
57317;SDS011;43157;50.982;18.132;2023-06-22T14:26:48;8.20;;;4.20;;
57317;SDS011;43157;50.982;18.132;2023-06-22T14:29:14;9.80;;;4.30;;
57317;SDS011;43157;50.982;18.132;2023-06-22T14:31:39;9.40;;;4.00;;
57317;SDS011;43157;50.982;18.132;2023-06-22T14:34:05;8.70;;;4.50;;
57317;SDS011;43157;50.982;18.132;2023-06-22T14:36:31;11.80;;;5.30;;
57317;SDS011;43157;50.982;18.132;2023-06-22T14:38:56;9.10;;;4.30;;